Time;durP1;ratioP1;P1;durP2;ratioP2;P2;SDS_P1;SDS_P2;PMS_P1;PMS_P2;Temp;Humidity;BMP_temperature;BMP_pressure;BME280_temperature;BME280_humidity;BME280_pressure;Samples;Min_cycle;Max_cycle;Signal;HPM_P1;HPM_P2
2022/03/01 00:00:50;;;;;;;;;43.60;36.00;;;;;6.02;43.66;100605.47;6264259;27;97526;-64
2022/03/01 00:03:55;;;;;;;;;44.00;36.00;;;;;5.96;43.68;100598.03;6264762;27;96833;-62
2022/03/01 00:06:58;;;;;;;;;41.60;34.60;;;;;5.93;44.15;100600.19;6259638;27;97446;-63
2022/03/01 00:10:04;;;;;;;;;50.00;38.00;;;;;6.03;44.01;100585.75;6263298;27;96805;-65
2022/03/01 00:13:08;;;;;;;;;39.75;33.00;;;;;6.05;43.42;100596.31;6237128;27;97200;-62
2022/03/01 00:16:11;;;;;;;;;44.60;35.80;;;;;5.98;43.44;100588.03;6237587;27;98147;-62
2022/03/01 00:19:16;;;;;;;;;45.80;36.00;;;;;5.91;43.70;100589.63;6228696;27;97070;-63
2022/03/01 00:22:19;;;;;;;;;48.20;37.60;;;;;5.88;43.93;100595.28;6263943;27;98245;-63
2022/03/01 00:25:22;;;;;;;;;49.00;39.00;;;;;5.81;44.24;100588.81;6263952;27;96987;-62
2022/03/01 00:28:25;;;;;;;;;45.00;36.00;;;;;5.80;43.86;100597.84;6264197;27;97501;-63
2022/03/01 00:31:29;;;;;;;;;46.25;38.00;;;;;5.74;43.82;100597.59;6244804;27;97914;-64
2022/03/01 00:34:36;;;;;;;;;47.40;35.80;;;;;5.68;43.64;100591.00;6246739;27;96993;-64
2022/03/01 00:37:39;;;;;;;;;46.50;38.00;;;;;5.64;43.68;100597.63;6261720;27;97466;-63
2022/03/01 00:40:43;;;;;;;;;45.00;36.00;;;;;5.56;44.22;100587.69;6263613;27;97564;-64
2022/03/01 00:43:46;;;;;;;;;46.20;36.80;;;;;5.57;43.92;100588.53;6261788;27;97579;-65
2022/03/01 00:46:49;;;;;;;;;44.80;35.00;;;;;5.57;44.06;100593.88;6243835;27;97270;-63
2022/03/01 00:49:54;;;;;;;;;43.00;33.00;;;;;5.48;44.00;100594.75;6261751;27;97761;-64
2022/03/01 00:52:57;;;;;;;;;40.80;34.60;;;;;5.52;44.00;100596.16;6261129;27;97511;-62
2022/03/01 00:56:04;;;;;;;;;48.25;37.25;;;;;5.51;43.86;100594.47;6243098;27;97327;-63
2022/03/01 00:59:08;;;;;;;;;43.80;35.40;;;;;5.44;43.81;100593.34;6243342;27;97372;-64
2022/03/01 01:02:12;;;;;;;;;41.00;35.20;;;;;5.39;43.53;100587.59;6263112;27;97445;-62
2022/03/01 01:05:17;;;;;;;;;41.00;34.00;;;;;5.36;43.66;100587.91;6245570;27;98469;-62
2022/03/01 01:08:21;;;;;;;;;43.60;35.00;;;;;5.30;43.78;100596.50;6263144;27;98044;-63
2022/03/01 01:11:24;;;;;;;;;46.60;37.60;;;;;5.24;43.86;100604.13;6263428;27;97522;-64
2022/03/01 01:14:27;;;;;;;;;43.40;34.40;;;;;5.21;43.74;100603.59;6244172;27;97048;-63
2022/03/01 01:17:31;;;;;;;;;45.00;35.00;;;;;5.14;43.70;100589.09;6263148;27;96983;-64
2022/03/01 01:20:36;;;;;;;;;40.50;33.00;;;;;5.14;43.83;100602.47;6245405;27;97818;-63
2022/03/01 01:23:41;;;;;;;;;44.40;34.40;;;;;5.10;43.92;100606.44;6263888;27;96713;-63
2022/03/01 01:26:44;;;;;;;;;38.40;33.00;;;;;5.11;44.07;100608.13;6244928;27;98396;-63
2022/03/01 01:29:50;;;;;;;;;41.60;34.00;;;;;5.10;43.93;100611.78;6262896;27;97438;-63
2022/03/01 01:32:54;;;;;;;;;43.50;34.50;;;;;5.08;43.82;100619.13;6244307;27;97404;-64
2022/03/01 01:35:59;;;;;;;;;40.50;33.75;;;;;5.03;44.02;100614.19;6262757;27;97159;-64
2022/03/01 01:39:02;;;;;;;;;44.50;34.00;;;;;5.06;44.02;100597.84;6262141;27;96793;-64
2022/03/01 01:42:05;;;;;;;;;43.50;33.00;;;;;5.10;44.28;100595.72;6244581;27;96471;-64
2022/03/01 01:45:10;;;;;;;;;40.00;32.80;;;;;5.07;44.11;100598.72;6263488;27;96928;-63
2022/03/01 01:48:21;;;;;;;;;41.00;33.50;;;;;5.04;44.24;100597.16;6227023;27;97946;-62
2022/03/01 01:51:26;;;;;;;;;42.60;33.00;;;;;4.97;44.36;100600.56;6263030;27;97516;-62
2022/03/01 01:54:30;;;;;;;;;44.00;36.00;;;;;4.95;44.56;100607.88;6263829;27;97514;-64
2022/03/01 01:57:33;;;;;;;;;40.00;33.20;;;;;4.91;44.34;100606.47;6243600;27;98141;-63
2022/03/01 02:00:36;;;;;;;;;46.40;37.40;;;;;4.93;45.22;100608.03;6259854;27;97456;-62
2022/03/01 02:03:40;;;;;;;;;44.80;35.80;;;;;4.93;45.02;100609.84;6258994;27;96885;-64
2022/03/01 02:06:51;;;;;;;;;43.60;33.40;;;;;4.86;44.48;100604.22;6260404;27;97938;-64
2022/03/01 02:09:55;;;;;;;;;48.00;39.00;;;;;4.79;45.12;100595.09;6242167;27;97425;-63
2022/03/01 02:12:59;;;;;;;;;43.00;34.00;;;;;4.76;44.87;100592.72;6261083;27;97444;-62
2022/03/01 02:16:04;;;;;;;;;45.00;36.50;;;;;4.70;44.49;100595.94;6262581;27;96523;-62
2022/03/01 02:19:12;;;;;;;;;46.60;38.00;;;;;4.64;45.00;100592.00;6244180;27;96501;-63
2022/03/01 02:22:17;;;;;;;;;49.25;40.00;;;;;4.63;45.53;100594.84;6243101;27;99581;-64
2022/03/01 02:25:24;;;;;;;;;45.00;36.50;;;;;4.60;45.38;100587.94;6261882;27;97507;-63
2022/03/01 02:28:27;;;;;;;;;47.00;36.25;;;;;4.60;45.34;100598.63;6262735;27;97525;-62
2022/03/01 02:31:31;;;;;;;;;46.60;36.20;;;;;4.55;45.57;100594.69;6227262;27;99533;-64
2022/03/01 02:34:35;;;;;;;;;46.60;37.20;;;;;4.51;44.77;100602.16;6247693;27;97826;-63
2022/03/01 02:37:40;;;;;;;;;48.00;37.50;;;;;4.54;44.67;100593.88;6226908;27;100027;-62
2022/03/01 02:40:43;;;;;;;;;48.60;39.00;;;;;4.47;44.77;100590.06;6261548;27;97446;-62
2022/03/01 02:43:46;;;;;;;;;46.40;37.40;;;;;4.43;44.96;100590.50;6243954;27;98204;-61
2022/03/01 02:46:50;;;;;;;;;45.60;35.60;;;;;4.40;45.44;100580.94;6261654;27;97183;-63
2022/03/01 02:49:53;;;;;;;;;49.00;38.60;;;;;4.40;45.54;100585.44;6261661;27;97265;-63
2022/03/01 02:52:58;;;;;;;;;42.40;35.40;;;;;4.39;45.03;100583.75;6261744;27;97432;-64
2022/03/01 02:56:01;;;;;;;;;45.00;36.00;;;;;4.39;45.55;100589.09;6243648;27;99946;-63
2022/03/01 02:59:05;;;;;;;;;40.00;32.80;;;;;4.45;45.13;100592.03;6261750;27;96546;-63
2022/03/01 03:02:09;;;;;;;;;35.60;32.00;;;;;4.48;44.94;100585.56;6250294;27;96660;-65
2022/03/01 03:05:13;;;;;;;;;40.60;33.60;;;;;4.56;44.91;100583.88;6261559;27;96500;-64
2022/03/01 03:08:19;;;;;;;;;35.40;30.60;;;;;4.62;44.70;100582.47;6238942;27;96705;-65
2022/03/01 03:11:22;;;;;;;;;41.00;33.00;;;;;4.59;44.36;100575.59;6261764;27;96505;-64
2022/03/01 03:14:25;;;;;;;;;41.40;33.40;;;;;4.58;44.00;100578.41;6261699;27;97077;-64
2022/03/01 03:17:29;;;;;;;;;35.67;32.00;;;;;4.53;44.14;100586.00;6265846;27;97578;-63
2022/03/01 03:20:32;;;;;;;;;37.00;31.25;;;;;4.47;43.95;100574.03;6265398;27;97602;-62
2022/03/01 03:23:37;;;;;;;;;40.00;33.00;;;;;4.50;44.01;100581.75;6265402;27;96891;-63
2022/03/01 03:26:40;;;;;;;;;37.40;31.60;;;;;4.24;44.12;100556.63;6229910;27;97785;-65
2022/03/01 03:29:44;;;;;;;;;38.00;32.00;;;;;4.35;44.18;100583.16;6247173;27;97590;-63
2022/03/01 03:32:47;;;;;;;;;38.00;32.80;;;;;4.28;44.42;100579.38;6266069;27;97047;-63
2022/03/01 03:35:50;;;;;;;;;41.80;34.20;;;;;4.16;44.34;100572.50;6246975;27;97585;-64
2022/03/01 03:38:55;;;;;;;;;38.50;32.00;;;;;4.11;44.58;100566.72;6263501;27;96865;-64
2022/03/01 03:41:58;;;;;;;;;37.50;31.00;;;;;4.05;44.61;100568.16;6228711;27;97935;-65
2022/03/01 03:45:01;;;;;;;;;34.20;32.00;;;;;3.95;44.14;100566.44;6262712;27;97641;-64
2022/03/01 03:48:05;;;;;;;;;44.00;35.80;;;;;3.89;44.51;100568.69;6246346;27;97221;-63
2022/03/01 03:51:09;;;;;;;;;45.60;33.00;;;;;3.85;44.35;100569.94;6245413;27;96985;-63
2022/03/01 03:54:13;;;;;;;;;39.40;33.00;;;;;3.79;44.46;100565.16;6229146;27;96616;-64
2022/03/01 03:57:17;;;;;;;;;42.00;33.00;;;;;3.73;44.76;100557.69;6266043;27;97381;-62
2022/03/01 04:00:21;;;;;;;;;39.00;33.00;;;;;3.72;44.36;100564.00;6262383;27;98129;-63
2022/03/01 04:03:28;;;;;;;;;40.40;33.00;;;;;3.66;44.22;100563.72;6264700;27;97397;-64
2022/03/01 04:06:33;;;;;;;;;42.40;33.00;;;;;3.63;44.45;100558.66;6265095;27;97029;-63
2022/03/01 04:09:38;;;;;;;;;38.00;32.00;;;;;3.45;44.55;100534.47;6266479;27;96614;-63
2022/03/01 04:12:41;;;;;;;;;40.00;32.00;;;;;3.47;44.09;100559.16;6246505;27;97344;-63
2022/03/01 04:15:44;;;;;;;;;35.25;30.25;;;;;3.42;44.56;100562.22;6246647;27;97313;-63
2022/03/01 04:18:48;;;;;;;;;42.20;34.60;;;;;3.41;44.80;100563.25;6246491;27;97579;-62
2022/03/01 04:21:51;;;;;;;;;39.50;33.00;;;;;3.40;44.28;100550.88;6263804;27;96812;-62
2022/03/01 04:24:56;;;;;;;;;43.80;34.20;;;;;3.43;44.47;100547.09;6263808;27;97508;-62
2022/03/01 04:27:59;;;;;;;;;40.40;32.40;;;;;3.46;44.46;100541.50;6264686;27;96443;-64
2022/03/01 04:31:03;;;;;;;;;38.20;31.20;;;;;3.40;44.26;100532.22;6231590;27;97103;-62
2022/03/01 04:34:06;;;;;;;;;41.00;33.25;;;;;3.36;44.06;100544.13;6264561;27;97440;-63
2022/03/01 04:37:09;;;;;;;;;38.40;32.80;;;;;3.32;44.40;100534.69;6264964;27;96918;-64
2022/03/01 04:40:16;;;;;;;;;38.75;33.00;;;;;3.21;43.97;100534.81;6263840;27;96486;-64
2022/03/01 04:43:19;;;;;;;;;42.20;34.00;;;;;3.09;44.38;100522.56;6268571;27;96637;-64
2022/03/01 04:46:23;;;;;;;;;41.00;34.00;;;;;3.07;44.60;100535.19;6264329;27;96582;-66
2022/03/01 04:49:26;;;;;;;;;40.00;33.00;;;;;3.07;44.52;100526.34;6263587;27;97437;-63
2022/03/01 04:52:30;;;;;;;;;45.00;34.60;;;;;3.06;44.95;100525.50;6263205;27;97486;-62
2022/03/01 04:55:35;;;;;;;;;40.20;34.40;;;;;3.00;45.01;100524.22;6264513;27;97388;-64
2022/03/01 04:58:38;;;;;;;;;42.00;35.00;;;;;2.92;44.92;100521.38;6264121;27;96382;-64
2022/03/01 05:01:41;;;;;;;;;45.00;35.00;;;;;2.90;45.30;100522.47;6262564;27;97526;-63
2022/03/01 05:04:45;;;;;;;;;47.40;38.00;;;;;2.82;44.91;100509.81;6265458;27;96948;-61
2022/03/01 05:07:49;;;;;;;;;45.60;37.00;;;;;2.97;44.57;100528.97;6247776;27;99535;-64
2022/03/01 05:10:54;;;;;;;;;46.00;35.00;;;;;2.95;44.58;100518.44;6215671;27;98422;-64
2022/03/01 05:13:57;;;;;;;;;42.00;34.00;;;;;2.92;44.71;100526.69;6261458;27;97528;-63
2022/03/01 05:17:00;;;;;;;;;41.00;33.40;;;;;2.88;44.81;100519.94;6263444;27;97327;-62
2022/03/01 05:20:04;;;;;;;;;39.80;33.40;;;;;2.82;44.60;100527.63;6248944;27;97615;-62
2022/03/01 05:23:11;;;;;;;;;39.00;33.75;;;;;2.77;44.70;100525.34;6242151;27;96862;-65
2022/03/01 05:26:15;;;;;;;;;43.00;36.00;;;;;2.80;44.95;100527.75;6246336;27;97120;-64
2022/03/01 05:29:19;;;;;;;;;42.00;34.00;;;;;2.84;45.15;100529.16;6260771;27;96671;-64
2022/03/01 05:32:24;;;;;;;;;38.20;32.80;;;;;2.84;45.09;100525.66;6260172;27;97260;-63
2022/03/01 05:35:29;;;;;;;;;39.60;33.00;;;;;2.84;44.86;100528.31;6262348;27;97507;-62
2022/03/01 05:38:32;;;;;;;;;41.75;33.00;;;;;2.91;44.59;100530.34;6260660;27;97003;-62
2022/03/01 05:41:37;;;;;;;;;39.40;33.40;;;;;3.00;44.54;100531.34;6260332;27;97193;-62
2022/03/01 05:44:40;;;;;;;;;40.00;33.00;;;;;3.13;44.51;100528.47;6241760;27;99940;-65
2022/03/01 05:47:44;;;;;;;;;38.00;32.00;;;;;3.25;44.08;100532.72;6248835;27;97706;-65
2022/03/01 05:50:47;;;;;;;;;36.60;31.60;;;;;3.37;43.77;100534.31;6260690;27;97158;-62
2022/03/01 05:53:53;;;;;;;;;35.00;30.80;;;;;3.46;43.75;100534.34;6254844;27;96708;-64
2022/03/01 05:56:57;;;;;;;;;36.80;31.80;;;;;3.62;43.75;100540.94;6243658;27;97338;-64
2022/03/01 06:00:01;;;;;;;;;38.00;33.00;;;;;3.74;44.13;100546.03;6261731;27;97597;-63
2022/03/01 06:03:14;;;;;;;;;40.00;31.75;;;;;3.88;45.02;100542.13;6257975;27;98388;-64
2022/03/01 06:06:18;;;;;;;;;39.20;32.00;;;;;4.04;44.77;100541.59;6243391;27;97786;-63
2022/03/01 06:09:21;;;;;;;;;42.40;33.40;;;;;4.23;44.28;100552.28;6268346;27;97461;-63
2022/03/01 06:12:26;;;;;;;;;39.75;32.00;;;;;4.12;43.65;100507.03;6259069;27;98587;-68
2022/03/01 06:15:29;;;;;;;;;38.50;32.00;;;;;4.58;43.46;100557.88;6251812;27;96691;-64
2022/03/01 06:18:32;;;;;;;;;44.40;35.00;;;;;4.78;43.30;100551.53;6260564;27;97156;-63
2022/03/01 06:21:36;;;;;;;;;43.00;34.50;;;;;4.85;43.45;100522.38;6259140;27;96708;-63
2022/03/01 06:24:42;;;;;;;;;44.20;34.00;;;;;5.29;42.79;100546.69;6233011;27;98842;-64
2022/03/01 06:27:46;;;;;;;;;44.40;35.00;;;;;5.56;42.92;100546.72;6261181;27;96802;-62
2022/03/01 06:30:54;;;;;;;;;54.75;43.00;;;;;5.89;42.36;100555.97;6255877;27;97330;-63
2022/03/01 06:33:58;;;;;;;;;44.40;34.60;;;;;6.14;41.70;100533.81;6259841;27;97781;-63
2022/03/01 06:37:02;;;;;;;;;42.80;35.00;;;;;6.74;41.72;100553.56;6262456;27;98056;-64
2022/03/01 06:40:07;;;;;;;;;39.00;32.60;;;;;7.32;40.47;100551.06;6259422;27;97496;-65
2022/03/01 06:43:11;;;;;;;;;43.50;35.00;;;;;8.00;39.24;100552.81;6260852;27;96609;-64
2022/03/01 06:46:15;;;;;;;;;37.00;33.00;;;;;8.78;37.98;100555.94;6259113;27;97605;-65
2022/03/01 06:49:19;;;;;;;;;40.00;33.00;;;;;9.61;36.44;100540.22;6242843;27;96429;-65
2022/03/01 06:52:22;;;;;;;;;34.80;32.00;;;;;10.63;34.56;100545.31;6258932;27;97421;-64
2022/03/01 06:55:27;;;;;;;;;38.60;33.00;;;;;12.17;31.53;100548.97;6239849;27;99676;-64
2022/03/01 06:58:32;;;;;;;;;36.50;32.00;;;;;14.12;29.48;100542.38;6257638;27;97387;-63
2022/03/01 07:01:36;;;;;;;;;43.80;33.00;;;;;15.68;26.93;100558.09;6239099;27;96996;-64
2022/03/01 07:04:39;;;;;;;;;38.40;33.00;;;;;16.69;25.35;100559.03;6256477;27;97737;-65
2022/03/01 07:07:43;;;;;;;;;36.00;31.40;;;;;17.28;24.21;100558.53;6272373;27;97585;-65
2022/03/01 07:10:46;;;;;;;;;40.80;32.40;;;;;18.19;23.76;100560.41;6268139;27;97237;-63
2022/03/01 07:13:51;;;;;;;;;36.00;33.00;;;;;19.43;22.25;100564.97;6286958;27;97243;-64
2022/03/01 07:16:54;;;;;;;;;35.00;31.60;;;;;20.74;20.57;100556.72;6279794;27;97164;-64
2022/03/01 07:20:00;;;;;;;;;36.00;31.80;;;;;22.08;19.40;100559.31;6242795;27;97207;-65
2022/03/01 07:23:04;;;;;;;;;36.00;30.80;;;;;22.77;17.51;100556.75;6260356;27;96679;-63
2022/03/01 07:26:08;;;;;;;;;32.00;30.00;;;;;23.52;17.09;100552.91;6271379;27;96686;-63
2022/03/01 07:29:13;;;;;;;;;32.20;30.00;;;;;24.37;16.81;100548.91;6260649;27;96686;-63
2022/03/01 07:32:16;;;;;;;;;27.50;25.00;;;;;24.69;15.53;100552.25;6260916;27;97547;-65
2022/03/01 07:35:20;;;;;;;;;24.80;23.40;;;;;25.59;15.32;100550.59;6259762;27;98213;-66
2022/03/01 07:38:24;;;;;;;;;26.40;23.40;;;;;26.13;14.36;100553.44;6259571;27;97257;-64
2022/03/01 07:41:27;;;;;;;;;24.50;22.50;;;;;26.42;14.48;100553.56;6259380;27;96636;-64
2022/03/01 07:44:34;;;;;;;;;27.00;24.00;;;;;26.26;14.01;100555.59;6259335;27;99112;-65
2022/03/01 07:47:38;;;;;;;;;28.40;25.00;;;;;25.93;14.23;100547.16;6265953;27;97481;-72
2022/03/01 07:50:41;;;;;;;;;29.25;27.00;;;;;26.45;14.44;100544.69;6278960;27;96895;-67
2022/03/01 07:53:44;;;;;;;;;24.40;22.40;;;;;26.58;14.39;100540.47;6267922;27;98062;-63
2022/03/01 07:56:48;;;;;;;;;27.25;23.50;;;;;26.86;13.87;100538.88;6272377;27;97655;-64
2022/03/01 07:59:52;;;;;;;;;23.25;23.00;;;;;27.18;13.69;100525.31;6242128;27;98046;-64
2022/03/01 08:02:55;;;;;;;;;26.20;24.20;;;;;27.75;13.49;100521.69;6263822;27;98161;-64
2022/03/01 08:05:59;;;;;;;;;28.00;25.00;;;;;28.01;13.40;100531.31;6264551;27;96896;-65
2022/03/01 08:09:02;;;;;;;;;32.00;27.40;;;;;27.88;12.96;100531.22;6264126;27;97468;-65
2022/03/01 08:12:07;;;;;;;;;29.00;27.00;;;;;28.00;13.22;100526.09;6263945;27;96590;-62
2022/03/01 08:15:12;;;;;;;;;30.00;29.00;;;;;28.37;12.96;100523.34;6263945;27;97477;-66
2022/03/01 08:18:17;;;;;;;;;25.75;23.00;;;;;28.76;12.29;100511.13;6255027;27;97436;-63
2022/03/01 08:21:21;;;;;;;;;31.60;28.00;;;;;29.08;12.20;100511.09;6263027;27;97417;-64
2022/03/01 08:24:28;;;;;;;;;26.80;25.20;;;;;29.12;12.23;100506.63;6289755;27;97459;-65
2022/03/01 08:27:32;;;;;;;;;26.20;22.60;;;;;29.23;12.51;100510.81;6262729;27;97595;-63
2022/03/01 08:30:36;;;;;;;;;28.00;24.00;;;;;29.39;11.97;100505.00;6264508;27;97172;-64
2022/03/01 08:33:40;;;;;;;;;23.60;23.60;;;;;29.67;12.17;100504.72;6264412;27;96548;-66
2022/03/01 08:36:43;;;;;;;;;23.00;19.33;;;;;29.82;12.07;100511.91;6253921;27;97030;-64
2022/03/01 08:39:46;;;;;;;;;23.00;22.60;;;;;29.83;11.71;100502.44;6270686;27;97493;-64
2022/03/01 08:42:49;;;;;;;;;25.60;21.60;;;;;29.32;11.54;100494.31;6272416;27;97096;-64
2022/03/01 08:45:54;;;;;;;;;24.00;22.00;;;;;29.50;11.83;100501.75;6246020;27;96614;-65
2022/03/01 08:48:58;;;;;;;;;22.40;20.00;;;;;29.62;11.68;100498.44;6253947;27;98416;-65
2022/03/01 08:52:02;;;;;;;;;19.40;18.40;;;;;29.62;11.43;100496.47;6264502;27;96419;-64
2022/03/01 08:55:05;;;;;;;;;17.75;16.50;;;;;29.56;10.72;100499.69;6263215;27;97494;-63
2022/03/01 08:58:09;;;;;;;;;19.60;18.00;;;;;29.73;11.83;100501.84;6265200;27;97607;-66
2022/03/01 09:01:13;;;;;;;;;18.00;18.00;;;;;30.00;11.76;100501.84;6264496;27;97572;-64
2022/03/01 09:04:17;;;;;;;;;17.00;16.00;;;;;30.30;11.35;100506.69;6262524;27;97049;-64
2022/03/01 09:07:21;;;;;;;;;20.00;20.00;;;;;30.28;10.70;100495.09;6262783;27;98611;-63
2022/03/01 09:10:25;;;;;;;;;21.50;21.00;;;;;30.18;10.99;100497.28;6264201;27;97268;-64
2022/03/01 09:13:28;;;;;;;;;20.25;18.25;;;;;30.21;11.12;100493.84;6262312;27;97485;-65
2022/03/01 09:16:33;;;;;;;;;23.00;20.00;;;;;29.94;10.75;100491.97;6260466;27;96812;-65
2022/03/01 09:19:37;;;;;;;;;22.00;20.00;;;;;29.52;10.73;100487.50;6244157;27;98396;-65
2022/03/01 09:22:40;;;;;;;;;23.40;20.60;;;;;29.12;11.24;100480.78;6263418;27;97497;-62
2022/03/01 09:25:44;;;;;;;;;20.00;18.00;;;;;28.64;11.13;100466.31;6262894;27;97600;-64
2022/03/01 09:28:47;;;;;;;;;20.00;17.00;;;;;28.70;11.42;100478.97;6262937;27;97691;-64
2022/03/01 09:31:51;;;;;;;;;15.00;14.00;;;;;28.36;11.36;100437.66;6240729;27;97551;-64
2022/03/01 09:34:55;;;;;;;;;16.00;15.00;;;;;28.18;11.48;100455.13;6237148;28;97985;-64
2022/03/01 09:38:00;;;;;;;;;17.20;17.20;;;;;27.79;12.01;100467.31;6244649;27;97176;-65
2022/03/01 09:41:05;;;;;;;;;19.25;17.25;;;;;27.90;11.82;100452.19;6262714;27;96443;-64
2022/03/01 09:44:09;;;;;;;;;14.50;14.00;;;;;28.29;11.55;100451.91;6263536;27;96726;-65
2022/03/01 09:47:14;;;;;;;;;15.00;15.00;;;;;28.25;11.70;100442.53;6245387;27;97464;-65
2022/03/01 09:50:20;;;;;;;;;10.00;10.00;;;;;28.05;11.11;100437.28;6264728;27;98104;-63
2022/03/01 09:53:24;;;;;;;;;10.00;9.75;;;;;27.89;11.10;100428.34;6282216;27;97454;-66
2022/03/01 09:56:27;;;;;;;;;12.00;11.00;;;;;27.60;11.20;100438.72;6262424;27;97511;-65
2022/03/01 09:59:30;;;;;;;;;11.00;10.00;;;;;27.68;11.44;100432.53;6288348;27;97526;-63
2022/03/01 10:02:37;;;;;;;;;9.20;9.00;;;;;26.49;11.21;100428.75;6280639;27;97506;-64
2022/03/01 10:05:42;;;;;;;;;10.60;10.00;;;;;25.83;12.57;100421.75;6271461;27;96490;-62
2022/03/01 10:08:46;;;;;;;;;10.50;10.00;;;;;26.01;12.30;100419.41;6270789;27;97702;-66
2022/03/01 10:11:50;;;;;;;;;11.40;10.00;;;;;26.07;11.80;100430.16;6281855;27;96551;-64
2022/03/01 10:14:59;;;;;;;;;13.00;12.00;;;;;25.60;11.75;100421.59;6271967;27;98032;-62
2022/03/01 10:18:13;;;;;;;;;10.00;8.25;;;;;25.49;12.52;100422.72;6247214;27;97475;-63
2022/03/01 10:21:16;;;;;;;;;10.00;9.00;;;;;25.51;12.19;100417.75;6276904;27;96771;-63
2022/03/01 10:24:21;;;;;;;;;10.60;10.40;;;;;25.32;12.56;100412.00;6261559;27;97321;-62
2022/03/01 10:27:28;;;;;;;;;10.00;8.60;;;;;25.57;11.64;100416.63;6269213;27;97406;-65
2022/03/01 10:30:34;;;;;;;;;10.00;10.00;;;;;25.49;12.22;100412.50;6263697;27;96505;-66
2022/03/01 10:33:41;;;;;;;;;14.00;13.00;;;;;25.46;12.52;100413.88;6261853;27;96975;-63
2022/03/01 10:36:47;;;;;;;;;11.00;10.00;;;;;25.57;12.27;100402.81;6262402;27;97519;-64
2022/03/01 10:39:51;;;;;;;;;12.00;10.00;;;;;25.86;12.33;100398.22;6267531;27;96461;-64
2022/03/01 10:43:05;;;;;;;;;10.00;8.00;;;;;25.24;12.27;100404.31;6264036;27;97604;-65
2022/03/01 10:46:08;;;;;;;;;12.80;11.80;;;;;25.27;12.75;100400.97;6262955;27;97033;-66
2022/03/01 10:49:18;;;;;;;;;10.60;9.60;;;;;25.28;12.32;100397.94;6286882;27;96580;-62
2022/03/01 10:52:22;;;;;;;;;12.00;11.00;;;;;24.49;12.67;100393.13;6261301;27;97550;-63
2022/03/01 10:55:27;;;;;;;;;13.00;12.60;;;;;24.33;12.79;100394.25;6261285;27;97021;-64
2022/03/01 10:58:32;;;;;;;;;14.60;13.00;;;;;24.50;12.96;100389.28;6286980;27;96599;-63
2022/03/01 11:01:35;;;;;;;;;13.00;12.00;;;;;23.87;13.40;100373.22;6250613;27;96885;-65
2022/03/01 11:04:40;;;;;;;;;15.00;13.40;;;;;23.68;13.52;100364.66;6263353;27;97516;-65
2022/03/01 11:07:48;;;;;;;;;15.80;12.80;;;;;23.86;13.21;100360.56;6276531;27;97482;-67
2022/03/01 11:10:52;;;;;;;;;13.20;12.00;;;;;22.98;13.76;100348.69;6274559;27;98309;-62
2022/03/01 11:13:58;;;;;;;;;12.75;11.75;;;;;22.34;14.21;100351.56;6243737;27;96532;-61
2022/03/01 11:17:09;;;;;;;;;13.00;11.00;;;;;22.39;14.01;100348.84;6243093;27;99641;-63
2022/03/01 11:20:16;;;;;;;;;15.00;12.00;;;;;21.53;14.90;100329.66;6259679;27;97951;-65
2022/03/01 11:23:23;;;;;;;;;17.00;16.00;;;;;21.71;15.35;100339.44;6260645;27;96658;-62
2022/03/01 11:26:37;;;;;;;;;15.60;14.00;;;;;22.07;14.76;100340.63;6258358;27;96838;-64
2022/03/01 11:29:42;;;;;;;;;13.00;12.00;;;;;22.16;14.74;100325.31;6261692;27;98188;-64
2022/03/01 11:32:47;;;;;;;;;13.40;12.40;;;;;22.41;14.86;100332.94;6258554;27;98309;-65
2022/03/01 11:35:55;;;;;;;;;14.50;13.00;;;;;22.77;14.23;100315.56;6260612;27;96697;-65
2022/03/01 11:39:09;;;;;;;;;13.00;12.00;;;;;23.32;14.52;100314.16;6263606;27;97564;-62
2022/03/01 11:42:20;;;;;;;;;14.00;12.00;;;;;23.03;13.93;100294.53;6261322;27;98143;-64
2022/03/01 11:45:33;;;;;;;;;14.00;13.25;;;;;21.84;14.47;100299.78;6246476;27;97021;-64
2022/03/01 11:48:45;;;;;;;;;13.00;12.00;;;;;21.66;14.69;100298.22;6258719;27;97223;-64
2022/03/01 11:51:51;;;;;;;;;12.00;10.20;;;;;21.95;14.76;100291.38;6265320;27;97538;-64
2022/03/01 11:54:58;;;;;;;;;14.00;13.00;;;;;22.46;13.50;100294.50;6251844;27;96965;-63
2022/03/01 11:58:03;;;;;;;;;15.00;13.20;;;;;22.52;14.05;100281.59;6265627;27;96587;-66
2022/03/01 12:01:09;;;;;;;;;13.40;10.80;;;;;22.52;14.68;100287.94;6261774;27;97953;-64
2022/03/01 12:04:12;;;;;;;;;13.00;11.20;;;;;22.83;14.16;100291.69;6242479;27;97029;-63
2022/03/01 12:07:21;;;;;;;;;17.00;14.00;;;;;23.07;14.00;100281.88;6272303;27;97458;-64
2022/03/01 12:10:25;;;;;;;;;14.80;13.40;;;;;23.17;13.43;100275.56;6264854;27;97493;-64
2022/03/01 12:13:36;;;;;;;;;12.20;11.20;;;;;23.13;12.77;100272.56;6268059;27;97484;-62
2022/03/01 12:16:40;;;;;;;;;12.00;11.00;;;;;23.28;12.45;100263.50;6259077;27;97815;-63
2022/03/01 12:19:43;;;;;;;;;13.00;13.00;;;;;23.60;12.32;100266.09;6267154;27;97478;-62
2022/03/01 12:22:54;;;;;;;;;11.60;11.00;;;;;23.15;12.61;100228.28;6257188;27;98500;-64
2022/03/01 12:26:00;;;;;;;;;12.75;11.25;;;;;22.71;12.81;100239.69;6261323;27;96833;-61
2022/03/01 12:29:04;;;;;;;;;12.60;12.00;;;;;22.71;13.91;100236.94;6262742;27;97237;-64
2022/03/01 12:32:12;;;;;;;;;11.80;11.00;;;;;22.97;13.08;100229.56;6266464;27;96769;-64
2022/03/01 12:35:16;;;;;;;;;12.20;10.20;;;;;22.43;12.87;100209.84;6264433;27;97453;-67
2022/03/01 12:38:21;;;;;;;;;9.00;9.00;;;;;21.85;12.49;100216.28;6272766;27;96595;-64
2022/03/01 12:41:25;;;;;;;;;6.80;6.80;;;;;21.21;11.77;100199.81;6279838;27;96367;-64
2022/03/01 12:44:31;;;;;;;;;7.00;6.40;;;;;20.92;11.67;100212.91;6285013;27;97622;-65
2022/03/01 12:47:34;;;;;;;;;8.00;7.00;;;;;20.29;12.37;100210.72;6264843;27;96897;-64
2022/03/01 12:50:45;;;;;;;;;7.20;7.20;;;;;19.67;13.05;100186.28;6245321;27;97649;-64
2022/03/01 12:53:55;;;;;;;;;9.60;9.00;;;;;19.77;13.16;100194.66;6262686;27;97439;-66
2022/03/01 12:57:00;;;;;;;;;8.20;6.80;;;;;19.86;14.01;100189.59;6260700;27;97196;-66
2022/03/01 13:00:10;;;;;;;;;8.00;8.00;;;;;19.79;13.07;100192.47;6260089;27;99685;-65
2022/03/01 13:03:24;;;;;;;;;7.00;7.00;;;;;20.02;13.66;100180.53;6263193;27;96882;-65
2022/03/01 13:06:27;;;;;;;;;9.00;7.60;;;;;20.13;13.44;100181.50;6274806;27;96860;-67
2022/03/01 13:09:33;;;;;;;;;9.60;9.00;;;;;19.96;13.29;100161.53;6264405;27;97868;-63
2022/03/01 13:12:37;;;;;;;;;10.00;8.40;;;;;19.81;13.95;100164.88;6263647;27;97515;-64
2022/03/01 13:15:40;;;;;;;;;9.00;7.00;;;;;19.92;14.22;100160.38;6264324;27;97462;-66
2022/03/01 13:18:43;;;;;;;;;10.25;8.25;;;;;19.53;14.14;100167.72;6256409;27;96560;-64
2022/03/01 13:21:49;;;;;;;;;9.80;9.00;;;;;19.14;14.41;100161.28;6261927;27;97305;-62
2022/03/01 13:24:54;;;;;;;;;10.00;9.00;;;;;18.92;15.04;100155.69;6263898;27;96691;-64
2022/03/01 13:27:57;;;;;;;;;9.00;7.80;;;;;18.70;14.71;100150.09;6262211;27;96621;-63
2022/03/01 13:31:01;;;;;;;;;10.00;9.00;;;;;17.83;15.13;100143.88;6263320;27;96809;-64
2022/03/01 13:34:05;;;;;;;;;10.00;9.00;;;;;17.44;15.04;100141.84;6263891;27;96371;-63
2022/03/01 13:37:11;;;;;;;;;8.00;8.00;;;;;17.15;15.46;100144.38;6270516;27;97163;-63
2022/03/01 13:40:18;;;;;;;;;9.00;8.25;;;;;16.84;15.75;100139.22;6260215;27;97146;-61
2022/03/01 13:43:26;;;;;;;;;8.40;7.40;;;;;16.77;16.35;100130.28;6244120;27;97349;-63
2022/03/01 13:46:29;;;;;;;;;10.00;10.00;;;;;16.44;15.85;100134.28;6260341;27;97163;-63
2022/03/01 13:49:36;;;;;;;;;10.00;9.00;;;;;16.19;16.04;100133.56;6260785;27;96785;-63
2022/03/01 13:52:41;;;;;;;;;9.40;9.00;;;;;15.74;16.92;100127.56;6260385;27;97157;-63
2022/03/01 13:55:48;;;;;;;;;11.00;10.00;;;;;15.44;17.71;100126.63;6243394;27;97451;-61
2022/03/01 13:58:52;;;;;;;;;9.00;8.00;;;;;15.24;18.09;100125.94;6248084;27;97478;-62
2022/03/01 14:01:55;;;;;;;;;11.00;10.00;;;;;15.29;18.34;100136.97;6231550;27;100215;-62
2022/03/01 14:05:01;;;;;;;;;11.00;10.00;;;;;15.16;17.92;100127.88;6232518;27;97346;-60